X  CloseMetar Aviation Weather Data     LEVC Valencia

Temperatura

20°C Temperatura

18°C Punto de rocío

88% Humedad



Viento

14 KM/H

 9 MPH

 4 M/S

 8 KTS



60°
ENE
Condiciones actuales

Lluvia ligera Lluvia ligera
Presión 1019.92 (hPa) - 30.12 (in)
Visibilidad 6.2 (mi) - 10 (km)
Aeropuerto
Airport-code LEVC

localidad Valencia 18 (km)

Metar:
LEVC 100400Z 06008KT 020V080 9999 -RA SCT015 BKN035 20/18 Q1020 NOSIG

Hora: 10-10-2019 06:00